sensor_id;sensor_type;location;lat;lon;timestamp;P1;durP1;ratioP1;P2;durP2;ratioP2
17380;SDS011;8808;52.478;13.378;2023-09-30T00:01:44;8.68;;;1.35;;
17380;SDS011;8808;52.478;13.378;2023-09-30T00:04:11;2.70;;;0.90;;
17380;SDS011;8808;52.478;13.378;2023-09-30T00:06:38;2.25;;;1.10;;
17380;SDS011;8808;52.478;13.378;2023-09-30T00:09:07;1.50;;;1.05;;
17380;SDS011;8808;52.478;13.378;2023-09-30T00:11:34;3.63;;;1.20;;
17380;SDS011;8808;52.478;13.378;2023-09-30T00:14:00;3.55;;;1.40;;
17380;SDS011;8808;52.478;13.378;2023-09-30T00:16:28;1.55;;;1.00;;
17380;SDS011;8808;52.478;13.378;2023-09-30T00:18:56;4.03;;;1.33;;
17380;SDS011;8808;52.478;13.378;2023-09-30T00:21:23;7.57;;;1.10;;
17380;SDS011;8808;52.478;13.378;2023-09-30T00:23:50;3.65;;;0.98;;
17380;SDS011;8808;52.478;13.378;2023-09-30T00:26:18;2.90;;;1.30;;
17380;SDS011;8808;52.478;13.378;2023-09-30T00:28:46;3.53;;;1.17;;
17380;SDS011;8808;52.478;13.378;2023-09-30T00:31:13;2.38;;;1.10;;
17380;SDS011;8808;52.478;13.378;2023-09-30T00:33:40;3.05;;;0.82;;
17380;SDS011;8808;52.478;13.378;2023-09-30T00:36:07;5.60;;;1.00;;
17380;SDS011;8808;52.478;13.378;2023-09-30T00:38:35;1.85;;;0.90;;
17380;SDS011;8808;52.478;13.378;2023-09-30T00:41:03;2.53;;;0.87;;
17380;SDS011;8808;52.478;13.378;2023-09-30T00:43:31;3.40;;;1.10;;
17380;SDS011;8808;52.478;13.378;2023-09-30T00:46:01;3.67;;;1.20;;
17380;SDS011;8808;52.478;13.378;2023-09-30T00:48:33;4.63;;;1.13;;
17380;SDS011;8808;52.478;13.378;2023-09-30T00:51:00;3.20;;;0.93;;
17380;SDS011;8808;52.478;13.378;2023-09-30T00:53:27;4.87;;;1.20;;
17380;SDS011;8808;52.478;13.378;2023-09-30T00:55:55;2.60;;;1.00;;
17380;SDS011;8808;52.478;13.378;2023-09-30T00:58:22;2.10;;;1.37;;
17380;SDS011;8808;52.478;13.378;2023-09-30T01:03:31;2.23;;;1.13;;
17380;SDS011;8808;52.478;13.378;2023-09-30T01:05:59;1.60;;;1.10;;
17380;SDS011;8808;52.478;13.378;2023-09-30T01:08:26;4.00;;;1.27;;
17380;SDS011;8808;52.478;13.378;2023-09-30T01:10:53;3.83;;;1.30;;
17380;SDS011;8808;52.478;13.378;2023-09-30T01:13:21;4.83;;;1.10;;
17380;SDS011;8808;52.478;13.378;2023-09-30T01:15:49;3.33;;;1.00;;
17380;SDS011;8808;52.478;13.378;2023-09-30T01:18:16;4.53;;;1.40;;
17380;SDS011;8808;52.478;13.378;2023-09-30T01:20:44;6.20;;;1.50;;
17380;SDS011;8808;52.478;13.378;2023-09-30T01:23:12;5.73;;;1.17;;
17380;SDS011;8808;52.478;13.378;2023-09-30T01:25:39;3.80;;;1.40;;
17380;SDS011;8808;52.478;13.378;2023-09-30T01:28:09;5.53;;;1.00;;
17380;SDS011;8808;52.478;13.378;2023-09-30T01:30:36;10.77;;;1.63;;
17380;SDS011;8808;52.478;13.378;2023-09-30T01:33:03;3.93;;;1.33;;
17380;SDS011;8808;52.478;13.378;2023-09-30T01:35:32;4.47;;;1.20;;
17380;SDS011;8808;52.478;13.378;2023-09-30T01:37:59;6.53;;;1.23;;
17380;SDS011;8808;52.478;13.378;2023-09-30T01:40:28;8.37;;;1.47;;
17380;SDS011;8808;52.478;13.378;2023-09-30T01:42:55;4.60;;;1.30;;
17380;SDS011;8808;52.478;13.378;2023-09-30T01:45:22;6.57;;;1.30;;
17380;SDS011;8808;52.478;13.378;2023-09-30T01:47:49;3.37;;;1.30;;
17380;SDS011;8808;52.478;13.378;2023-09-30T01:50:16;3.93;;;1.23;;
17380;SDS011;8808;52.478;13.378;2023-09-30T01:52:43;1.83;;;1.03;;
17380;SDS011;8808;52.478;13.378;2023-09-30T01:55:10;4.50;;;1.10;;
17380;SDS011;8808;52.478;13.378;2023-09-30T01:57:39;9.50;;;1.30;;
17380;SDS011;8808;52.478;13.378;2023-09-30T02:00:06;7.23;;;1.57;;
17380;SDS011;8808;52.478;13.378;2023-09-30T02:02:35;4.90;;;1.30;;
17380;SDS011;8808;52.478;13.378;2023-09-30T02:05:02;3.90;;;1.30;;
17380;SDS011;8808;52.478;13.378;2023-09-30T02:07:30;3.03;;;1.03;;
17380;SDS011;8808;52.478;13.378;2023-09-30T02:09:57;5.77;;;1.27;;
17380;SDS011;8808;52.478;13.378;2023-09-30T02:12:24;3.60;;;1.07;;
17380;SDS011;8808;52.478;13.378;2023-09-30T02:14:54;4.27;;;1.33;;
17380;SDS011;8808;52.478;13.378;2023-09-30T02:17:21;7.37;;;1.30;;
17380;SDS011;8808;52.478;13.378;2023-09-30T02:19:49;1.90;;;0.87;;
17380;SDS011;8808;52.478;13.378;2023-09-30T02:22:16;7.33;;;1.70;;
17380;SDS011;8808;52.478;13.378;2023-09-30T02:24:43;5.20;;;1.43;;
17380;SDS011;8808;52.478;13.378;2023-09-30T02:27:10;3.23;;;1.40;;
17380;SDS011;8808;52.478;13.378;2023-09-30T02:29:37;4.70;;;1.67;;
17380;SDS011;8808;52.478;13.378;2023-09-30T02:32:05;9.00;;;1.70;;
17380;SDS011;8808;52.478;13.378;2023-09-30T02:34:32;11.10;;;1.50;;
17380;SDS011;8808;52.478;13.378;2023-09-30T02:37:00;7.73;;;1.80;;
17380;SDS011;8808;52.478;13.378;2023-09-30T02:39:27;3.07;;;1.40;;
17380;SDS011;8808;52.478;13.378;2023-09-30T02:41:54;5.50;;;1.47;;
17380;SDS011;8808;52.478;13.378;2023-09-30T02:44:22;8.07;;;1.67;;
17380;SDS011;8808;52.478;13.378;2023-09-30T02:46:49;4.70;;;1.63;;
17380;SDS011;8808;52.478;13.378;2023-09-30T02:49:17;6.87;;;1.57;;
17380;SDS011;8808;52.478;13.378;2023-09-30T02:51:44;9.77;;;1.93;;
17380;SDS011;8808;52.478;13.378;2023-09-30T02:54:11;8.70;;;1.60;;
17380;SDS011;8808;52.478;13.378;2023-09-30T02:56:40;5.70;;;1.50;;
17380;SDS011;8808;52.478;13.378;2023-09-30T02:59:07;5.93;;;1.20;;
17380;SDS011;8808;52.478;13.378;2023-09-30T03:01:35;9.17;;;1.40;;
17380;SDS011;8808;52.478;13.378;2023-09-30T03:04:02;6.50;;;1.43;;
17380;SDS011;8808;52.478;13.378;2023-09-30T03:06:33;7.77;;;1.30;;
17380;SDS011;8808;52.478;13.378;2023-09-30T03:09:01;8.20;;;1.50;;
17380;SDS011;8808;52.478;13.378;2023-09-30T03:11:29;8.40;;;1.57;;
17380;SDS011;8808;52.478;13.378;2023-09-30T03:13:56;8.67;;;1.63;;
17380;SDS011;8808;52.478;13.378;2023-09-30T03:16:23;5.40;;;1.13;;
17380;SDS011;8808;52.478;13.378;2023-09-30T03:18:50;4.70;;;1.53;;
17380;SDS011;8808;52.478;13.378;2023-09-30T03:21:18;9.40;;;1.50;;
17380;SDS011;8808;52.478;13.378;2023-09-30T03:23:46;5.07;;;1.53;;
17380;SDS011;8808;52.478;13.378;2023-09-30T03:26:13;4.53;;;1.57;;
17380;SDS011;8808;52.478;13.378;2023-09-30T03:28:41;3.90;;;1.50;;
17380;SDS011;8808;52.478;13.378;2023-09-30T03:31:08;8.47;;;1.57;;
17380;SDS011;8808;52.478;13.378;2023-09-30T03:33:36;6.03;;;1.33;;
17380;SDS011;8808;52.478;13.378;2023-09-30T03:36:04;12.23;;;1.53;;
17380;SDS011;8808;52.478;13.378;2023-09-30T03:38:34;7.80;;;1.60;;
17380;SDS011;8808;52.478;13.378;2023-09-30T03:41:02;9.13;;;2.33;;
17380;SDS011;8808;52.478;13.378;2023-09-30T03:43:33;3.87;;;1.47;;
17380;SDS011;8808;52.478;13.378;2023-09-30T03:46:02;10.43;;;1.90;;
17380;SDS011;8808;52.478;13.378;2023-09-30T03:48:29;9.23;;;1.97;;
17380;SDS011;8808;52.478;13.378;2023-09-30T03:50:57;7.60;;;1.30;;
17380;SDS011;8808;52.478;13.378;2023-09-30T03:53:23;11.17;;;1.30;;
17380;SDS011;8808;52.478;13.378;2023-09-30T03:55:51;4.40;;;1.20;;
17380;SDS011;8808;52.478;13.378;2023-09-30T03:58:20;13.10;;;1.47;;
17380;SDS011;8808;52.478;13.378;2023-09-30T04:00:46;7.17;;;1.40;;
17380;SDS011;8808;52.478;13.378;2023-09-30T04:03:14;2.67;;;1.30;;
17380;SDS011;8808;52.478;13.378;2023-09-30T04:05:41;6.20;;;1.33;;
17380;SDS011;8808;52.478;13.378;2023-09-30T04:08:08;4.77;;;1.70;;
17380;SDS011;8808;52.478;13.378;2023-09-30T04:10:36;5.60;;;1.60;;
17380;SDS011;8808;52.478;13.378;2023-09-30T04:13:03;7.17;;;1.40;;
17380;SDS011;8808;52.478;13.378;2023-09-30T04:15:31;7.20;;;1.27;;
17380;SDS011;8808;52.478;13.378;2023-09-30T04:18:00;5.20;;;1.40;;
17380;SDS011;8808;52.478;13.378;2023-09-30T04:20:28;6.37;;;1.73;;
17380;SDS011;8808;52.478;13.378;2023-09-30T04:22:55;6.97;;;1.73;;
17380;SDS011;8808;52.478;13.378;2023-09-30T04:25:22;6.50;;;1.80;;
17380;SDS011;8808;52.478;13.378;2023-09-30T04:27:51;10.50;;;1.77;;
17380;SDS011;8808;52.478;13.378;2023-09-30T04:30:18;4.17;;;1.80;;
17380;SDS011;8808;52.478;13.378;2023-09-30T04:32:48;9.27;;;1.67;;
17380;SDS011;8808;52.478;13.378;2023-09-30T04:35:15;3.97;;;1.40;;
17380;SDS011;8808;52.478;13.378;2023-09-30T04:37:44;5.33;;;1.67;;
17380;SDS011;8808;52.478;13.378;2023-09-30T04:40:11;9.20;;;2.17;;
17380;SDS011;8808;52.478;13.378;2023-09-30T04:42:43;9.53;;;1.60;;
17380;SDS011;8808;52.478;13.378;2023-09-30T04:45:11;12.83;;;1.87;;
17380;SDS011;8808;52.478;13.378;2023-09-30T04:47:41;6.67;;;1.53;;
17380;SDS011;8808;52.478;13.378;2023-09-30T04:50:11;11.93;;;1.67;;
17380;SDS011;8808;52.478;13.378;2023-09-30T04:52:41;11.67;;;2.10;;
17380;SDS011;8808;52.478;13.378;2023-09-30T04:55:09;8.60;;;1.63;;
17380;SDS011;8808;52.478;13.378;2023-09-30T04:57:37;9.50;;;1.40;;
17380;SDS011;8808;52.478;13.378;2023-09-30T05:00:05;7.27;;;1.57;;
17380;SDS011;8808;52.478;13.378;2023-09-30T05:02:35;3.97;;;1.30;;
17380;SDS011;8808;52.478;13.378;2023-09-30T05:05:03;4.60;;;1.17;;
17380;SDS011;8808;52.478;13.378;2023-09-30T05:07:32;8.37;;;1.93;;
17380;SDS011;8808;52.478;13.378;2023-09-30T05:09:59;4.53;;;1.73;;
17380;SDS011;8808;52.478;13.378;2023-09-30T05:12:30;11.63;;;1.57;;
17380;SDS011;8808;52.478;13.378;2023-09-30T05:14:58;4.57;;;1.57;;
17380;SDS011;8808;52.478;13.378;2023-09-30T05:17:25;5.07;;;1.60;;
17380;SDS011;8808;52.478;13.378;2023-09-30T05:19:53;5.47;;;1.73;;
17380;SDS011;8808;52.478;13.378;2023-09-30T05:22:20;11.43;;;2.33;;
17380;SDS011;8808;52.478;13.378;2023-09-30T05:24:50;9.73;;;1.40;;
17380;SDS011;8808;52.478;13.378;2023-09-30T05:27:18;7.60;;;2.00;;
17380;SDS011;8808;52.478;13.378;2023-09-30T05:29:45;4.80;;;1.37;;
17380;SDS011;8808;52.478;13.378;2023-09-30T05:32:14;8.13;;;2.03;;
17380;SDS011;8808;52.478;13.378;2023-09-30T05:34:41;6.97;;;1.80;;
17380;SDS011;8808;52.478;13.378;2023-09-30T05:37:08;6.00;;;1.73;;
17380;SDS011;8808;52.478;13.378;2023-09-30T05:39:37;9.40;;;2.83;;
17380;SDS011;8808;52.478;13.378;2023-09-30T05:42:05;5.13;;;1.57;;
17380;SDS011;8808;52.478;13.378;2023-09-30T05:44:32;5.57;;;1.77;;
17380;SDS011;8808;52.478;13.378;2023-09-30T05:46:59;7.30;;;1.73;;
17380;SDS011;8808;52.478;13.378;2023-09-30T05:49:27;4.60;;;1.30;;
17380;SDS011;8808;52.478;13.378;2023-09-30T05:51:54;7.10;;;2.03;;
17380;SDS011;8808;52.478;13.378;2023-09-30T05:54:21;6.50;;;2.23;;
17380;SDS011;8808;52.478;13.378;2023-09-30T05:56:48;8.27;;;1.60;;
17380;SDS011;8808;52.478;13.378;2023-09-30T05:59:16;6.40;;;1.87;;
17380;SDS011;8808;52.478;13.378;2023-09-30T06:01:43;7.73;;;2.00;;
17380;SDS011;8808;52.478;13.378;2023-09-30T06:04:11;3.63;;;1.50;;
17380;SDS011;8808;52.478;13.378;2023-09-30T06:06:38;13.30;;;2.07;;
17380;SDS011;8808;52.478;13.378;2023-09-30T06:09:05;9.77;;;2.07;;
17380;SDS011;8808;52.478;13.378;2023-09-30T06:11:33;5.27;;;1.43;;
17380;SDS011;8808;52.478;13.378;2023-09-30T06:14:01;6.03;;;1.63;;
17380;SDS011;8808;52.478;13.378;2023-09-30T06:16:32;6.90;;;1.70;;
17380;SDS011;8808;52.478;13.378;2023-09-30T06:19:00;7.57;;;1.90;;
17380;SDS011;8808;52.478;13.378;2023-09-30T06:21:28;16.23;;;2.50;;
17380;SDS011;8808;52.478;13.378;2023-09-30T06:23:55;6.63;;;1.30;;
17380;SDS011;8808;52.478;13.378;2023-09-30T06:26:22;8.00;;;1.87;;
17380;SDS011;8808;52.478;13.378;2023-09-30T06:28:51;10.83;;;1.83;;
17380;SDS011;8808;52.478;13.378;2023-09-30T06:31:19;12.33;;;1.90;;
17380;SDS011;8808;52.478;13.378;2023-09-30T06:33:49;5.63;;;1.43;;
17380;SDS011;8808;52.478;13.378;2023-09-30T06:36:16;7.13;;;1.67;;
17380;SDS011;8808;52.478;13.378;2023-09-30T06:38:43;9.90;;;1.50;;
17380;SDS011;8808;52.478;13.378;2023-09-30T06:41:15;6.07;;;1.70;;
17380;SDS011;8808;52.478;13.378;2023-09-30T06:43:43;6.30;;;1.67;;
17380;SDS011;8808;52.478;13.378;2023-09-30T06:46:10;11.60;;;1.70;;
17380;SDS011;8808;52.478;13.378;2023-09-30T06:48:38;13.53;;;2.00;;
17380;SDS011;8808;52.478;13.378;2023-09-30T06:51:07;8.27;;;1.50;;
17380;SDS011;8808;52.478;13.378;2023-09-30T06:53:39;11.30;;;2.23;;
17380;SDS011;8808;52.478;13.378;2023-09-30T06:56:06;4.53;;;1.57;;
17380;SDS011;8808;52.478;13.378;2023-09-30T06:58:33;5.47;;;1.70;;
17380;SDS011;8808;52.478;13.378;2023-09-30T07:01:00;8.27;;;2.10;;
17380;SDS011;8808;52.478;13.378;2023-09-30T07:03:27;9.73;;;1.87;;
17380;SDS011;8808;52.478;13.378;2023-09-30T07:05:55;11.60;;;2.00;;
17380;SDS011;8808;52.478;13.378;2023-09-30T07:08:26;12.60;;;1.93;;
17380;SDS011;8808;52.478;13.378;2023-09-30T07:10:55;9.93;;;2.07;;
17380;SDS011;8808;52.478;13.378;2023-09-30T07:13:22;6.43;;;2.03;;
17380;SDS011;8808;52.478;13.378;2023-09-30T07:15:49;5.90;;;1.80;;
17380;SDS011;8808;52.478;13.378;2023-09-30T07:18:15;8.80;;;1.27;;
17380;SDS011;8808;52.478;13.378;2023-09-30T07:20:42;7.03;;;1.37;;
17380;SDS011;8808;52.478;13.378;2023-09-30T07:23:09;5.17;;;1.87;;
17380;SDS011;8808;52.478;13.378;2023-09-30T07:25:39;5.13;;;1.63;;
17380;SDS011;8808;52.478;13.378;2023-09-30T07:28:07;7.70;;;1.80;;
17380;SDS011;8808;52.478;13.378;2023-09-30T07:30:37;9.60;;;1.90;;
17380;SDS011;8808;52.478;13.378;2023-09-30T07:33:04;13.00;;;1.90;;
17380;SDS011;8808;52.478;13.378;2023-09-30T07:35:32;13.30;;;1.83;;
17380;SDS011;8808;52.478;13.378;2023-09-30T07:37:59;13.57;;;1.47;;
17380;SDS011;8808;52.478;13.378;2023-09-30T07:40:26;3.60;;;1.40;;
17380;SDS011;8808;52.478;13.378;2023-09-30T07:42:55;9.43;;;2.10;;
17380;SDS011;8808;52.478;13.378;2023-09-30T07:45:22;6.43;;;1.87;;
17380;SDS011;8808;52.478;13.378;2023-09-30T07:47:50;10.47;;;1.37;;
17380;SDS011;8808;52.478;13.378;2023-09-30T07:50:17;8.63;;;1.50;;
17380;SDS011;8808;52.478;13.378;2023-09-30T07:52:44;5.60;;;1.83;;
17380;SDS011;8808;52.478;13.378;2023-09-30T07:55:11;11.30;;;1.90;;
17380;SDS011;8808;52.478;13.378;2023-09-30T07:57:39;8.47;;;1.30;;
17380;SDS011;8808;52.478;13.378;2023-09-30T08:00:09;6.07;;;1.80;;
17380;SDS011;8808;52.478;13.378;2023-09-30T08:02:40;3.57;;;1.27;;
17380;SDS011;8808;52.478;13.378;2023-09-30T08:05:07;8.70;;;1.70;;
17380;SDS011;8808;52.478;13.378;2023-09-30T08:07:35;7.00;;;1.60;;
17380;SDS011;8808;52.478;13.378;2023-09-30T08:10:03;8.77;;;1.77;;
17380;SDS011;8808;52.478;13.378;2023-09-30T08:12:31;10.30;;;2.20;;
17380;SDS011;8808;52.478;13.378;2023-09-30T08:14:59;5.57;;;1.53;;
17380;SDS011;8808;52.478;13.378;2023-09-30T08:17:29;7.27;;;1.40;;
17380;SDS011;8808;52.478;13.378;2023-09-30T08:19:57;8.87;;;2.03;;
17380;SDS011;8808;52.478;13.378;2023-09-30T08:22:24;2.47;;;1.20;;
17380;SDS011;8808;52.478;13.378;2023-09-30T08:24:53;6.47;;;1.77;;
17380;SDS011;8808;52.478;13.378;2023-09-30T08:27:20;9.60;;;1.70;;
17380;SDS011;8808;52.478;13.378;2023-09-30T08:29:48;8.10;;;1.63;;
17380;SDS011;8808;52.478;13.378;2023-09-30T08:32:16;9.80;;;1.57;;
17380;SDS011;8808;52.478;13.378;2023-09-30T08:34:44;7.23;;;1.67;;
17380;SDS011;8808;52.478;13.378;2023-09-30T08:37:11;7.33;;;2.10;;
17380;SDS011;8808;52.478;13.378;2023-09-30T08:39:38;10.40;;;1.27;;
17380;SDS011;8808;52.478;13.378;2023-09-30T08:42:06;7.03;;;1.60;;
17380;SDS011;8808;52.478;13.378;2023-09-30T08:44:36;8.87;;;2.00;;
17380;SDS011;8808;52.478;13.378;2023-09-30T08:47:05;10.00;;;1.43;;
17380;SDS011;8808;52.478;13.378;2023-09-30T08:49:33;11.17;;;1.60;;
17380;SDS011;8808;52.478;13.378;2023-09-30T08:52:04;7.87;;;1.73;;
17380;SDS011;8808;52.478;13.378;2023-09-30T08:54:32;6.50;;;1.67;;
17380;SDS011;8808;52.478;13.378;2023-09-30T08:56:59;9.87;;;1.30;;
17380;SDS011;8808;52.478;13.378;2023-09-30T08:59:28;2.53;;;1.57;;
17380;SDS011;8808;52.478;13.378;2023-09-30T09:01:56;9.13;;;1.30;;
17380;SDS011;8808;52.478;13.378;2023-09-30T09:04:24;6.60;;;1.40;;
17380;SDS011;8808;52.478;13.378;2023-09-30T09:06:52;10.80;;;1.43;;
17380;SDS011;8808;52.478;13.378;2023-09-30T09:09:21;5.17;;;1.47;;
17380;SDS011;8808;52.478;13.378;2023-09-30T09:11:50;10.63;;;1.80;;
17380;SDS011;8808;52.478;13.378;2023-09-30T09:14:17;6.43;;;1.43;;
17380;SDS011;8808;52.478;13.378;2023-09-30T09:16:51;25.87;;;1.30;;
17380;SDS011;8808;52.478;13.378;2023-09-30T09:19:19;7.10;;;0.97;;
17380;SDS011;8808;52.478;13.378;2023-09-30T09:21:56;4.03;;;1.40;;
17380;SDS011;8808;52.478;13.378;2023-09-30T09:24:29;16.00;;;1.67;;
17380;SDS011;8808;52.478;13.378;2023-09-30T09:27:09;6.07;;;1.30;;
17380;SDS011;8808;52.478;13.378;2023-09-30T09:29:37;4.33;;;1.60;;
17380;SDS011;8808;52.478;13.378;2023-09-30T09:32:11;15.07;;;1.47;;
17380;SDS011;8808;52.478;13.378;2023-09-30T09:34:39;14.20;;;1.30;;
17380;SDS011;8808;52.478;13.378;2023-09-30T09:37:15;4.80;;;1.23;;
17380;SDS011;8808;52.478;13.378;2023-09-30T09:39:50;16.33;;;1.80;;
17380;SDS011;8808;52.478;13.378;2023-09-30T09:42:24;13.23;;;1.60;;
17380;SDS011;8808;52.478;13.378;2023-09-30T09:44:52;2.10;;;1.20;;
17380;SDS011;8808;52.478;13.378;2023-09-30T09:47:21;5.43;;;1.43;;
17380;SDS011;8808;52.478;13.378;2023-09-30T09:49:49;9.47;;;1.87;;
17380;SDS011;8808;52.478;13.378;2023-09-30T09:52:17;8.17;;;1.17;;
17380;SDS011;8808;52.478;13.378;2023-09-30T09:54:45;4.63;;;1.10;;
17380;SDS011;8808;52.478;13.378;2023-09-30T09:57:14;4.53;;;1.00;;
17380;SDS011;8808;52.478;13.378;2023-09-30T09:59:43;3.83;;;1.10;;
17380;SDS011;8808;52.478;13.378;2023-09-30T10:02:12;6.80;;;1.20;;
17380;SDS011;8808;52.478;13.378;2023-09-30T10:04:40;5.00;;;1.23;;
17380;SDS011;8808;52.478;13.378;2023-09-30T10:07:09;3.50;;;1.13;;
17380;SDS011;8808;52.478;13.378;2023-09-30T10:09:41;5.27;;;1.03;;
17380;SDS011;8808;52.478;13.378;2023-09-30T10:12:11;10.10;;;1.33;;
17380;SDS011;8808;52.478;13.378;2023-09-30T10:14:40;10.18;;;1.45;;
17380;SDS011;8808;52.478;13.378;2023-09-30T10:17:08;5.07;;;1.17;;
17380;SDS011;8808;52.478;13.378;2023-09-30T10:19:36;10.30;;;1.37;;
17380;SDS011;8808;52.478;13.378;2023-09-30T10:22:23;2.03;;;0.63;;
17380;SDS011;8808;52.478;13.378;2023-09-30T10:24:51;7.77;;;1.33;;
17380;SDS011;8808;52.478;13.378;2023-09-30T10:30:13;2.60;;;0.80;;
17380;SDS011;8808;52.478;13.378;2023-09-30T10:35:48;3.60;;;1.13;;
17380;SDS011;8808;52.478;13.378;2023-09-30T10:41:03;2.47;;;1.00;;
17380;SDS011;8808;52.478;13.378;2023-09-30T10:43:32;5.38;;;0.90;;
17380;SDS011;8808;52.478;13.378;2023-09-30T10:46:00;1.77;;;0.57;;
17380;SDS011;8808;52.478;13.378;2023-09-30T10:48:34;5.82;;;1.20;;
17380;SDS011;8808;52.478;13.378;2023-09-30T10:51:01;6.03;;;0.95;;
17380;SDS011;8808;52.478;13.378;2023-09-30T10:53:40;4.93;;;1.17;;
17380;SDS011;8808;52.478;13.378;2023-09-30T10:56:12;3.90;;;0.95;;
17380;SDS011;8808;52.478;13.378;2023-09-30T10:58:42;3.17;;;0.90;;
17380;SDS011;8808;52.478;13.378;2023-09-30T11:01:10;1.45;;;0.57;;
17380;SDS011;8808;52.478;13.378;2023-09-30T11:03:38;3.13;;;0.85;;
17380;SDS011;8808;52.478;13.378;2023-09-30T11:06:06;2.90;;;0.80;;
17380;SDS011;8808;52.478;13.378;2023-09-30T11:08:33;5.32;;;0.80;;
17380;SDS011;8808;52.478;13.378;2023-09-30T11:11:01;2.90;;;0.90;;
17380;SDS011;8808;52.478;13.378;2023-09-30T11:13:32;7.63;;;0.75;;
17380;SDS011;8808;52.478;13.378;2023-09-30T11:16:02;3.22;;;0.82;;
17380;SDS011;8808;52.478;13.378;2023-09-30T11:18:31;7.05;;;1.00;;
17380;SDS011;8808;52.478;13.378;2023-09-30T11:21:04;6.78;;;0.93;;
17380;SDS011;8808;52.478;13.378;2023-09-30T11:23:33;9.38;;;0.90;;
17380;SDS011;8808;52.478;13.378;2023-09-30T11:26:01;3.75;;;0.88;;
17380;SDS011;8808;52.478;13.378;2023-09-30T11:28:37;4.30;;;0.93;;
17380;SDS011;8808;52.478;13.378;2023-09-30T11:31:07;3.30;;;0.80;;
17380;SDS011;8808;52.478;13.378;2023-09-30T11:33:49;3.67;;;1.00;;
17380;SDS011;8808;52.478;13.378;2023-09-30T11:36:17;2.60;;;0.98;;
17380;SDS011;8808;52.478;13.378;2023-09-30T11:38:46;2.72;;;0.93;;
17380;SDS011;8808;52.478;13.378;2023-09-30T11:41:14;8.18;;;1.20;;
17380;SDS011;8808;52.478;13.378;2023-09-30T11:43:57;5.65;;;0.93;;
17380;SDS011;8808;52.478;13.378;2023-09-30T11:46:27;9.80;;;0.90;;
17380;SDS011;8808;52.478;13.378;2023-09-30T11:48:58;7.95;;;1.05;;
17380;SDS011;8808;52.478;13.378;2023-09-30T11:51:26;5.03;;;1.13;;
17380;SDS011;8808;52.478;13.378;2023-09-30T11:53:54;5.10;;;1.10;;
17380;SDS011;8808;52.478;13.378;2023-09-30T11:56:22;7.50;;;1.15;;
17380;SDS011;8808;52.478;13.378;2023-09-30T11:58:54;5.60;;;0.88;;
17380;SDS011;8808;52.478;13.378;2023-09-30T12:01:22;6.30;;;1.00;;
17380;SDS011;8808;52.478;13.378;2023-09-30T12:03:51;4.15;;;1.20;;
17380;SDS011;8808;52.478;13.378;2023-09-30T12:06:21;7.32;;;1.00;;
17380;SDS011;8808;52.478;13.378;2023-09-30T12:08:48;3.13;;;0.73;;
17380;SDS011;8808;52.478;13.378;2023-09-30T12:11:16;6.72;;;0.80;;
17380;SDS011;8808;52.478;13.378;2023-09-30T12:13:44;2.17;;;0.80;;
17380;SDS011;8808;52.478;13.378;2023-09-30T12:16:13;5.10;;;1.15;;
17380;SDS011;8808;52.478;13.378;2023-09-30T12:18:40;5.13;;;1.05;;
17380;SDS011;8808;52.478;13.378;2023-09-30T12:21:09;2.55;;;0.90;;
17380;SDS011;8808;52.478;13.378;2023-09-30T12:23:37;5.95;;;0.80;;
17380;SDS011;8808;52.478;13.378;2023-09-30T12:26:04;6.32;;;1.20;;
17380;SDS011;8808;52.478;13.378;2023-09-30T12:28:31;2.38;;;0.63;;
17380;SDS011;8808;52.478;13.378;2023-09-30T12:30:58;4.32;;;0.82;;
17380;SDS011;8808;52.478;13.378;2023-09-30T12:33:27;3.85;;;0.90;;
17380;SDS011;8808;52.478;13.378;2023-09-30T12:35:55;11.82;;;1.05;;
17380;SDS011;8808;52.478;13.378;2023-09-30T12:38:24;2.45;;;0.75;;
17380;SDS011;8808;52.478;13.378;2023-09-30T12:40:53;2.67;;;0.80;;
17380;SDS011;8808;52.478;13.378;2023-09-30T12:43:20;8.57;;;1.10;;
17380;SDS011;8808;52.478;13.378;2023-09-30T12:45:48;2.83;;;0.88;;
17380;SDS011;8808;52.478;13.378;2023-09-30T12:48:14;5.60;;;0.95;;
17380;SDS011;8808;52.478;13.378;2023-09-30T12:50:42;3.22;;;0.82;;
17380;SDS011;8808;52.478;13.378;2023-09-30T12:53:10;13.30;;;1.00;;
17380;SDS011;8808;52.478;13.378;2023-09-30T12:55:38;6.30;;;0.90;;
17380;SDS011;8808;52.478;13.378;2023-09-30T12:58:05;1.80;;;0.68;;
17380;SDS011;8808;52.478;13.378;2023-09-30T13:00:33;1.90;;;0.60;;
17380;SDS011;8808;52.478;13.378;2023-09-30T13:03:01;3.78;;;0.95;;
17380;SDS011;8808;52.478;13.378;2023-09-30T13:05:28;6.70;;;0.80;;
17380;SDS011;8808;52.478;13.378;2023-09-30T13:07:55;1.67;;;0.70;;
17380;SDS011;8808;52.478;13.378;2023-09-30T13:10:22;3.70;;;0.70;;
17380;SDS011;8808;52.478;13.378;2023-09-30T13:12:51;4.97;;;1.05;;
17380;SDS011;8808;52.478;13.378;2023-09-30T13:15:19;2.28;;;0.85;;
17380;SDS011;8808;52.478;13.378;2023-09-30T13:17:49;1.75;;;0.50;;
17380;SDS011;8808;52.478;13.378;2023-09-30T13:20:16;3.78;;;0.80;;
17380;SDS011;8808;52.478;13.378;2023-09-30T13:22:43;3.83;;;0.75;;
17380;SDS011;8808;52.478;13.378;2023-09-30T13:25:10;6.43;;;0.95;;
17380;SDS011;8808;52.478;13.378;2023-09-30T13:27:38;3.10;;;0.93;;
17380;SDS011;8808;52.478;13.378;2023-09-30T13:30:07;2.80;;;0.88;;
17380;SDS011;8808;52.478;13.378;2023-09-30T13:32:35;4.22;;;0.88;;
17380;SDS011;8808;52.478;13.378;2023-09-30T13:35:02;4.93;;;0.80;;
17380;SDS011;8808;52.478;13.378;2023-09-30T13:37:30;3.10;;;0.73;;
17380;SDS011;8808;52.478;13.378;2023-09-30T13:39:58;5.20;;;0.55;;
17380;SDS011;8808;52.478;13.378;2023-09-30T13:42:26;4.68;;;0.90;;
17380;SDS011;8808;52.478;13.378;2023-09-30T13:44:53;1.77;;;0.68;;
17380;SDS011;8808;52.478;13.378;2023-09-30T13:47:23;1.80;;;0.57;;
17380;SDS011;8808;52.478;13.378;2023-09-30T13:49:51;4.82;;;0.68;;
17380;SDS011;8808;52.478;13.378;2023-09-30T13:52:20;2.53;;;0.90;;
17380;SDS011;8808;52.478;13.378;2023-09-30T13:54:47;2.28;;;0.60;;
17380;SDS011;8808;52.478;13.378;2023-09-30T13:57:14;2.58;;;1.10;;
17380;SDS011;8808;52.478;13.378;2023-09-30T13:59:41;2.30;;;0.60;;
17380;SDS011;8808;52.478;13.378;2023-09-30T14:02:08;2.35;;;0.60;;
17380;SDS011;8808;52.478;13.378;2023-09-30T14:04:36;5.45;;;0.70;;
17380;SDS011;8808;52.478;13.378;2023-09-30T14:07:03;3.28;;;0.60;;
17380;SDS011;8808;52.478;13.378;2023-09-30T14:09:33;3.10;;;0.70;;
17380;SDS011;8808;52.478;13.378;2023-09-30T14:12:00;5.28;;;0.88;;
17380;SDS011;8808;52.478;13.378;2023-09-30T14:14:30;4.88;;;0.60;;
17380;SDS011;8808;52.478;13.378;2023-09-30T14:16:58;2.88;;;0.65;;
17380;SDS011;8808;52.478;13.378;2023-09-30T14:19:25;2.47;;;0.63;;
17380;SDS011;8808;52.478;13.378;2023-09-30T14:21:55;1.30;;;0.40;;
17380;SDS011;8808;52.478;13.378;2023-09-30T14:24:23;1.35;;;0.55;;
17380;SDS011;8808;52.478;13.378;2023-09-30T14:26:50;2.00;;;0.50;;
17380;SDS011;8808;52.478;13.378;2023-09-30T14:29:17;2.03;;;0.70;;
17380;SDS011;8808;52.478;13.378;2023-09-30T14:31:44;2.03;;;0.68;;
17380;SDS011;8808;52.478;13.378;2023-09-30T14:34:12;1.60;;;0.50;;
17380;SDS011;8808;52.478;13.378;2023-09-30T14:36:40;4.20;;;0.93;;
17380;SDS011;8808;52.478;13.378;2023-09-30T14:39:08;1.48;;;0.70;;
17380;SDS011;8808;52.478;13.378;2023-09-30T14:41:35;5.50;;;0.90;;
17380;SDS011;8808;52.478;13.378;2023-09-30T14:44:03;3.13;;;0.60;;
17380;SDS011;8808;52.478;13.378;2023-09-30T14:46:32;1.38;;;0.47;;
17380;SDS011;8808;52.478;13.378;2023-09-30T14:49:00;2.25;;;0.63;;
17380;SDS011;8808;52.478;13.378;2023-09-30T14:51:27;1.27;;;0.50;;
17380;SDS011;8808;52.478;13.378;2023-09-30T14:53:53;5.18;;;0.90;;
17380;SDS011;8808;52.478;13.378;2023-09-30T14:56:22;5.50;;;0.82;;
17380;SDS011;8808;52.478;13.378;2023-09-30T14:58:49;3.28;;;0.88;;
17380;SDS011;8808;52.478;13.378;2023-09-30T15:01:16;5.43;;;0.80;;
17380;SDS011;8808;52.478;13.378;2023-09-30T15:03:45;4.13;;;0.90;;